Main page
METAR-TAF:

METAR-TAF

Airports :

Austin Executive Airport

Austin, Texas, United States

latitude: 30-24-00N, longitude: 097-34-25W, elevation: 620 ft

Current weather observation

The report was made 17 minutes ago, at 13:35 UTC
Wind 12 mph from the South/Southeast
Temperature 77°F
Humidity 94%
Pressure 29.85 in. Hg
Visibility: 3 miles
Scattered clouds at a height of 1500 ft
Broken clouds at a height of 2000 ft
Broken clouds at a height of 4200 ft
mist

METAR: KEDC 201335Z AUTO 15010KT 3SM BR SCT015 BKN020 BKN042 25/24 A2985 RMK AO2

Time: 07:52 (13:52 UTC)


TAF: missing

Weather observations and forecasts of more than 4000 airports (METAR and TAF reports).

The available stations are represented by yellow and red dots on the map.

Hover mouse over dot to see the name of the station.

Then click to see weather observations and forecasts.

To change the map : click on the green buttons with a black cross to zoom in, on the green button with a dash to zoom out, or on the green arrows for adjacent maps.


METAR-TAF: